createdAt,value
2023-02-23T00:02:26.573Z,15.90
2023-02-23T00:05:12.672Z,15.73
2023-02-23T00:08:25.685Z,15.82
2023-02-23T00:11:13.039Z,16.92
2023-02-23T00:14:01.349Z,16.17
2023-02-23T00:17:13.135Z,15.55
2023-02-23T00:20:27.385Z,15.50
2023-02-23T00:23:15.097Z,16.25
2023-02-23T00:26:04.524Z,16.67
2023-02-23T00:28:53.736Z,16.63
2023-02-23T00:31:40.408Z,16.77
2023-02-23T00:34:26.509Z,15.48
2023-02-23T00:37:12.587Z,15.30
2023-02-23T00:39:58.629Z,16.30
2023-02-23T00:42:49.520Z,16.60
2023-02-23T00:45:36.799Z,17.35
2023-02-23T00:48:22.590Z,15.20
2023-02-23T00:51:08.714Z,17.17
2023-02-23T00:53:55.391Z,17.55
2023-02-23T00:56:41.895Z,16.15
2023-02-23T00:59:29.818Z,16.42
2023-02-23T01:02:16.023Z,17.20
2023-02-23T01:05:26.697Z,16.85
2023-02-23T01:08:13.015Z,16.63
2023-02-23T01:10:59.035Z,17.08
2023-02-23T01:17:20.866Z,15.75
2023-02-23T01:20:18.394Z,16.08
2023-02-23T01:23:05.341Z,16.95
2023-02-23T01:25:51.258Z,18.17
2023-02-23T01:56:11.592Z,13.77
2023-02-23T01:59:22.729Z,14.65
2023-02-23T02:02:09.011Z,14.52
2023-02-23T02:04:56.605Z,13.57
2023-02-23T02:07:50.426Z,15.63
2023-02-23T02:10:44.710Z,15.52
2023-02-23T02:13:32.509Z,15.13
2023-02-23T02:16:45.485Z,14.55
2023-02-23T02:19:40.600Z,13.52
2023-02-23T02:22:36.030Z,14.25
2023-02-23T02:26:13.515Z,14.43
2023-02-23T02:38:43.306Z,12.25
2023-02-23T02:41:53.673Z,13.43
2023-02-23T02:44:50.985Z,14.07
2023-02-23T02:48:11.908Z,13.88
2023-02-23T02:51:19.618Z,14.00
2023-02-23T02:54:32.251Z,13.45
2023-02-23T02:57:20.512Z,13.00
2023-02-23T03:00:26.133Z,13.38
2023-02-23T03:03:51.723Z,13.57
2023-02-23T03:07:17.851Z,12.70
2023-02-23T03:10:44.497Z,12.75
2023-02-23T03:14:10.976Z,13.45
2023-02-23T03:17:47.835Z,12.60
2023-02-23T03:25:53.748Z,12.90
2023-02-23T03:29:27.893Z,13.18
2023-02-23T03:32:58.506Z,12.13
2023-02-23T03:36:38.121Z,13.25
2023-02-23T03:39:49.405Z,12.50
2023-02-23T03:42:57.397Z,13.43
2023-02-23T03:46:05.510Z,12.00
2023-02-23T03:49:12.216Z,13.48
2023-02-23T03:52:25.861Z,12.60
2023-02-23T03:55:36.068Z,13.25
2023-02-23T03:58:52.487Z,13.90
2023-02-23T04:02:17.025Z,14.25
2023-02-23T04:05:29.476Z,13.18
2023-02-23T04:08:38.414Z,12.70
2023-02-23T04:11:52.645Z,13.80
2023-02-23T04:14:54.885Z,14.00
2023-02-23T04:17:42.181Z,10.23
2023-02-23T04:20:28.399Z,13.45
2023-02-23T04:23:14.563Z,14.52
2023-02-23T04:26:00.795Z,14.30
2023-02-23T04:28:46.752Z,15.30
2023-02-23T04:31:32.659Z,14.18
2023-02-23T04:34:21.716Z,14.75
2023-02-23T04:37:07.606Z,15.00
2023-02-23T04:39:53.422Z,15.60
2023-02-23T04:42:41.331Z,16.20
2023-02-23T04:45:27.394Z,15.98
2023-02-23T04:48:13.424Z,16.60
2023-02-23T04:50:59.401Z,16.10
2023-02-23T04:53:45.417Z,15.88
2023-02-23T04:56:32.152Z,15.32
2023-02-23T04:59:18.598Z,16.50
2023-02-23T05:02:04.510Z,16.58
2023-02-23T05:04:51.095Z,16.25
2023-02-23T05:07:37.499Z,15.30
2023-02-23T05:10:23.560Z,15.73
2023-02-23T05:13:09.488Z,15.50
2023-02-23T05:15:58.957Z,15.55
2023-02-23T05:18:44.724Z,16.27
2023-02-23T05:21:30.794Z,15.30
2023-02-23T05:24:18.323Z,15.23
2023-02-23T05:27:04.252Z,17.52
2023-02-23T05:29:50.264Z,15.93
2023-02-23T05:32:36.898Z,16.88
2023-02-23T05:35:23.373Z,15.73
2023-02-23T05:38:09.476Z,15.25
2023-02-23T05:40:55.546Z,15.93
2023-02-23T05:43:44.780Z,16.92
2023-02-23T05:46:30.751Z,15.60
2023-02-23T05:49:16.734Z,15.48
2023-02-23T05:52:02.990Z,15.82
2023-02-23T05:54:48.932Z,16.25
2023-02-23T05:57:34.768Z,15.80
2023-02-23T06:00:21.291Z,16.05
2023-02-23T06:03:07.504Z,15.68
2023-02-23T06:05:54.915Z,17.02
2023-02-23T06:08:41.325Z,15.10
2023-02-23T06:11:28.076Z,16.08
2023-02-23T06:14:14.648Z,15.20
2023-02-23T06:17:01.117Z,15.30
2023-02-23T06:19:46.938Z,16.17
2023-02-23T06:22:33.136Z,14.50
2023-02-23T06:25:18.829Z,15.55
2023-02-23T06:28:05.725Z,14.88
2023-02-23T06:30:55.926Z,15.10
2023-02-23T06:33:41.951Z,15.45
2023-02-23T06:36:28.332Z,16.42
2023-02-23T06:39:14.001Z,16.33
2023-02-23T06:42:00.588Z,15.57
2023-02-23T06:44:46.715Z,16.08
2023-02-23T06:47:33.715Z,15.93
2023-02-23T06:50:20.172Z,15.40
2023-02-23T06:53:06.338Z,16.35
2023-02-23T06:55:52.048Z,15.73
2023-02-23T06:58:38.658Z,16.20
2023-02-23T07:01:24.630Z,14.77
2023-02-23T07:04:16.658Z,14.65
2023-02-23T07:07:03.757Z,14.18
2023-02-23T07:09:49.589Z,14.30
2023-02-23T07:12:35.544Z,14.25
2023-02-23T07:15:22.151Z,15.60
2023-02-23T07:18:08.480Z,14.70
2023-02-23T07:20:54.373Z,15.30
2023-02-23T07:23:40.297Z,14.02
2023-02-23T07:26:26.863Z,13.57
2023-02-23T07:29:13.453Z,14.73
2023-02-23T07:31:59.413Z,14.48
2023-02-23T07:34:46.091Z,13.60
2023-02-23T07:37:32.004Z,14.10
2023-02-23T07:40:19.496Z,13.38
2023-02-23T07:43:05.424Z,13.95
2023-02-23T07:45:51.910Z,13.88
2023-02-23T07:48:38.694Z,13.40
2023-02-23T07:51:24.686Z,13.57
2023-02-23T07:54:11.147Z,13.75
2023-02-23T07:56:57.207Z,13.43
2023-02-23T07:59:43.672Z,14.82
2023-02-23T08:02:29.903Z,13.98
2023-02-23T08:05:16.630Z,13.60
2023-02-23T08:08:02.611Z,13.93
2023-02-23T08:10:49.998Z,14.20
2023-02-23T08:13:37.888Z,13.65
2023-02-23T08:16:23.945Z,13.68
2023-02-23T08:19:10.052Z,14.27
2023-02-23T08:21:57.028Z,13.68
2023-02-23T08:24:43.239Z,14.27
2023-02-23T08:27:29.337Z,14.77
2023-02-23T08:30:15.793Z,13.93
2023-02-23T08:33:01.704Z,13.15
2023-02-23T08:35:47.827Z,13.63
2023-02-23T08:38:36.601Z,14.48
2023-02-23T08:41:22.506Z,13.80
2023-02-23T08:44:08.908Z,13.32
2023-02-23T08:46:55.920Z,14.25
2023-02-23T08:49:41.514Z,14.05
2023-02-23T08:52:27.416Z,13.43
2023-02-23T08:55:16.630Z,13.48
2023-02-23T08:58:02.674Z,14.25
2023-02-23T09:00:48.743Z,14.35
2023-02-23T09:03:38.259Z,14.50
2023-02-23T09:06:26.092Z,13.98
2023-02-23T09:09:11.800Z,14.00
2023-02-23T09:11:59.102Z,12.75
2023-02-23T09:14:45.920Z,13.45
2023-02-23T09:17:31.655Z,12.98
2023-02-23T09:20:18.276Z,13.30
2023-02-23T09:23:04.143Z,12.80
2023-02-23T09:25:50.674Z,13.02
2023-02-23T09:28:38.819Z,12.60
2023-02-23T09:31:24.976Z,13.38
2023-02-23T09:34:12.746Z,12.60
2023-02-23T09:36:58.586Z,13.35
2023-02-23T09:39:45.783Z,13.43
2023-02-23T09:43:13.652Z,14.32
2023-02-23T09:46:29.917Z,13.40
2023-02-23T09:49:19.453Z,13.35
2023-02-23T09:52:11.807Z,13.70
2023-02-23T09:54:58.900Z,13.02
2023-02-23T09:57:47.791Z,13.48
2023-02-23T10:00:42.070Z,13.63
2023-02-23T10:03:32.190Z,13.32
2023-02-23T10:06:19.385Z,13.07
2023-02-23T10:09:19.564Z,13.35
2023-02-23T10:12:16.595Z,12.70
2023-02-23T10:15:20.745Z,13.10
2023-02-23T10:18:33.235Z,13.15
2023-02-23T10:21:40.546Z,13.57
2023-02-23T10:24:49.152Z,13.20
2023-02-23T10:27:47.944Z,13.70
2023-02-23T10:30:34.801Z,12.70
2023-02-23T10:33:26.881Z,11.98
2023-02-23T10:36:19.740Z,12.18
2023-02-23T10:39:09.803Z,12.87
2023-02-23T10:41:58.269Z,12.35
2023-02-23T10:44:46.675Z,12.35
2023-02-23T10:47:36.067Z,11.77
2023-02-23T10:50:22.721Z,12.45
2023-02-23T10:53:11.902Z,12.25
2023-02-23T10:56:11.609Z,12.63
2023-02-23T10:58:59.058Z,11.45
2023-02-23T11:02:00.926Z,11.32
2023-02-23T11:04:57.708Z,12.02
2023-02-23T11:07:44.830Z,11.85
2023-02-23T11:10:32.276Z,11.05
2023-02-23T11:13:27.398Z,11.70
2023-02-23T11:16:31.058Z,11.35
2023-02-23T11:19:29.928Z,11.55
2023-02-23T11:22:23.801Z,11.00
2023-02-23T11:25:33.461Z,12.10
2023-02-23T11:28:25.695Z,11.35
2023-02-23T11:31:30.953Z,11.40
2023-02-23T11:34:29.345Z,10.75
2023-02-23T11:37:41.054Z,10.55
2023-02-23T11:40:32.072Z,10.80
2023-02-23T11:43:18.905Z,11.23
2023-02-23T11:46:05.589Z,10.98
2023-02-23T11:48:57.264Z,11.07
2023-02-23T11:51:49.188Z,11.50
2023-02-23T11:54:35.895Z,11.60
2023-02-23T11:57:29.057Z,10.68
2023-02-23T12:00:25.592Z,11.07
2023-02-23T12:03:18.612Z,10.52
2023-02-23T12:06:06.059Z,11.75
2023-02-23T12:08:56.371Z,11.82
2023-02-23T12:11:49.265Z,11.70
2023-02-23T12:14:50.112Z,10.88
2023-02-23T12:17:49.434Z,11.32
2023-02-23T12:20:41.231Z,12.00
2023-02-23T12:23:33.670Z,11.50
2023-02-23T12:26:22.801Z,11.68
2023-02-23T12:29:30.844Z,12.23
2023-02-23T12:32:26.705Z,11.57
2023-02-23T12:35:27.212Z,11.32
2023-02-23T12:38:36.382Z,12.18
2023-02-23T12:41:45.627Z,11.50
2023-02-23T12:45:04.052Z,11.90
2023-02-23T12:48:00.259Z,12.48
2023-02-23T12:50:56.661Z,11.80
2023-02-23T12:53:44.307Z,11.57
2023-02-23T12:56:56.009Z,11.85
2023-02-23T12:59:49.774Z,11.95
2023-02-23T13:03:10.649Z,12.40
2023-02-23T13:06:20.492Z,12.15
2023-02-23T13:09:49.218Z,11.80
2023-02-23T13:12:48.218Z,11.70
2023-02-23T13:15:56.125Z,12.02
2023-02-23T13:19:27.132Z,11.45
2023-02-23T13:22:54.346Z,12.07
2023-02-23T13:26:03.557Z,11.27
2023-02-23T13:29:01.788Z,11.63
2023-02-23T13:31:56.817Z,11.25
2023-02-23T13:34:48.322Z,11.85
2023-02-23T13:37:43.448Z,12.73
2023-02-23T13:40:41.125Z,11.38
2023-02-23T13:43:35.032Z,11.90
2023-02-23T13:46:54.629Z,11.60
2023-02-23T13:49:56.828Z,11.18
2023-02-23T13:52:45.025Z,11.80
2023-02-23T13:55:48.069Z,11.15
2023-02-23T13:58:36.194Z,12.32
2023-02-23T14:01:23.595Z,12.05
2023-02-23T14:04:17.181Z,11.95
2023-02-23T14:07:05.898Z,11.73
2023-02-23T14:09:58.447Z,11.45
2023-02-23T14:13:09.002Z,11.30
2023-02-23T14:16:10.781Z,11.15
2023-02-23T14:19:08.679Z,11.57
2023-02-23T14:22:13.922Z,10.93
2023-02-23T14:25:19.140Z,11.25
2023-02-23T14:28:22.842Z,10.68
2023-02-23T14:31:12.253Z,10.70
2023-02-23T14:34:03.432Z,11.18
2023-02-23T14:36:53.328Z,10.73
2023-02-23T14:39:40.828Z,10.80
2023-02-23T14:42:32.903Z,12.23
2023-02-23T14:45:38.427Z,10.65
2023-02-23T14:48:25.678Z,11.05
2023-02-23T14:51:56.444Z,10.63
2023-02-23T14:54:43.132Z,11.43
2023-02-23T14:57:31.192Z,10.98
2023-02-23T15:00:21.476Z,10.73
2023-02-23T15:03:12.379Z,10.95
2023-02-23T15:06:03.051Z,11.43
2023-02-23T15:08:49.548Z,10.82
2023-02-23T15:11:37.669Z,11.18
2023-02-23T15:14:48.847Z,10.80
2023-02-23T15:17:50.499Z,11.27
2023-02-23T15:20:36.846Z,10.82
2023-02-23T15:23:22.961Z,10.27
2023-02-23T15:26:38.127Z,11.32
2023-02-23T15:29:36.401Z,10.55
2023-02-23T15:32:25.809Z,10.75
2023-02-23T15:35:13.453Z,10.73
2023-02-23T15:38:11.515Z,10.65
2023-02-23T15:41:07.766Z,10.88
2023-02-23T15:43:53.885Z,11.57
2023-02-23T15:46:42.632Z,11.82
2023-02-23T15:49:32.518Z,11.35
2023-02-23T15:52:23.220Z,11.77
2023-02-23T15:55:13.299Z,10.85
2023-02-23T15:58:01.754Z,11.63
2023-02-23T16:00:56.063Z,10.88
2023-02-23T16:03:55.010Z,11.27
2023-02-23T16:06:52.559Z,11.85
2023-02-23T16:09:39.287Z,11.18
2023-02-23T16:12:38.310Z,10.95
2023-02-23T16:15:35.417Z,11.15
2023-02-23T16:18:33.160Z,10.15
2023-02-23T16:21:23.974Z,10.88
2023-02-23T16:24:15.044Z,10.15
2023-02-23T16:27:02.365Z,11.13
2023-02-23T16:30:00.400Z,10.90
2023-02-23T16:32:47.960Z,10.90
2023-02-23T16:35:52.073Z,11.60
2023-02-23T16:38:39.074Z,10.63
2023-02-23T16:41:29.198Z,10.38
2023-02-23T16:44:43.691Z,11.60
2023-02-23T16:47:36.695Z,11.52
2023-02-23T16:50:24.464Z,11.40
2023-02-23T16:53:12.166Z,11.68
2023-02-23T16:56:01.217Z,10.98
2023-02-23T16:58:54.515Z,11.52
2023-02-23T17:01:41.076Z,11.77
2023-02-23T17:04:27.769Z,11.90
2023-02-23T17:07:14.785Z,12.40
2023-02-23T17:10:00.649Z,11.75
2023-02-23T17:12:47.931Z,11.32
2023-02-23T17:15:41.731Z,11.90
2023-02-23T17:18:30.776Z,10.82
2023-02-23T17:21:24.203Z,11.88
2023-02-23T17:26:57.692Z,11.02
2023-02-23T17:29:43.655Z,11.02
2023-02-23T17:32:30.062Z,10.85
2023-02-23T17:35:17.119Z,11.35
2023-02-23T17:38:05.148Z,11.43
2023-02-23T17:40:51.155Z,11.85
2023-02-23T17:43:44.230Z,11.00
2023-02-23T17:46:33.502Z,10.38
2023-02-23T17:49:22.361Z,11.70
2023-02-23T17:52:09.259Z,10.80
2023-02-23T17:54:58.376Z,11.15
2023-02-23T17:57:46.678Z,10.80
2023-02-23T18:00:37.998Z,10.80
2023-02-23T18:03:26.478Z,9.75
2023-02-23T18:06:14.789Z,10.93
2023-02-23T18:09:01.288Z,10.50
2023-02-23T18:11:48.969Z,10.23
2023-02-23T18:14:35.423Z,10.23
2023-02-23T18:17:21.366Z,9.88
2023-02-23T18:20:08.676Z,11.05
2023-02-23T18:22:54.531Z,10.32
2023-02-23T18:25:40.773Z,10.57
2023-02-23T18:28:26.518Z,9.90
2023-02-23T18:31:16.335Z,9.77
2023-02-23T18:34:02.153Z,10.35
2023-02-23T18:37:14.250Z,10.43
2023-02-23T18:40:00.769Z,9.48
2023-02-23T18:42:54.398Z,10.48
2023-02-23T18:45:41.224Z,10.90
2023-02-23T18:48:35.567Z,9.85
2023-02-23T18:51:23.820Z,10.15
2023-02-23T18:54:17.656Z,9.70
2023-02-23T18:57:05.183Z,10.00
2023-02-23T19:00:02.926Z,9.50
2023-02-23T19:02:49.309Z,9.90
2023-02-23T19:05:36.321Z,10.13
2023-02-23T19:08:23.728Z,9.93
2023-02-23T19:11:10.398Z,10.10
2023-02-23T19:14:00.290Z,9.82
2023-02-23T19:16:47.511Z,10.10
2023-02-23T19:20:27.068Z,10.30
2023-02-23T19:23:14.308Z,9.73
2023-02-23T19:26:02.607Z,9.65
2023-02-23T19:28:49.003Z,9.70
2023-02-23T19:31:35.803Z,9.25
2023-02-23T19:34:21.748Z,10.10
2023-02-23T19:37:09.950Z,9.90
2023-02-23T19:39:56.214Z,9.98
2023-02-23T19:42:46.540Z,9.63
2023-02-23T19:45:32.661Z,9.65
2023-02-23T19:48:19.098Z,10.18
2023-02-23T19:51:06.202Z,9.85
2023-02-23T19:53:57.573Z,10.20
2023-02-23T19:56:44.192Z,10.13
2023-02-23T19:59:30.850Z,9.75
2023-02-23T20:02:17.305Z,10.35
2023-02-23T20:05:03.812Z,10.68
2023-02-23T20:07:51.539Z,9.93
2023-02-23T20:10:42.744Z,10.75
2023-02-23T20:13:28.627Z,10.75
2023-02-23T20:16:15.480Z,11.55
2023-02-23T20:19:03.781Z,11.05
2023-02-23T20:21:50.081Z,11.15
2023-02-23T20:24:36.702Z,11.32
2023-02-23T20:27:22.810Z,12.02
2023-02-23T20:30:11.878Z,10.90
2023-02-23T20:32:58.366Z,11.13
2023-02-23T20:35:44.625Z,11.82
2023-02-23T20:38:31.610Z,11.80
2023-02-23T20:41:17.792Z,11.77
2023-02-23T20:44:04.063Z,12.00
2023-02-23T20:46:50.227Z,12.07
2023-02-23T20:49:37.362Z,12.73
2023-02-23T20:52:23.706Z,12.00
2023-02-23T20:55:10.693Z,11.90
2023-02-23T20:57:57.573Z,11.70
2023-02-23T21:00:44.230Z,13.32
2023-02-23T21:03:30.309Z,13.25
2023-02-23T21:06:16.501Z,13.10
2023-02-23T21:09:07.785Z,13.90
2023-02-23T21:11:55.187Z,13.30
2023-02-23T21:14:41.945Z,13.10
2023-02-23T21:17:28.814Z,12.63
2023-02-23T21:20:15.236Z,13.18
2023-02-23T21:23:02.555Z,13.48
2023-02-23T21:25:51.245Z,13.10
2023-02-23T21:28:39.948Z,12.57
2023-02-23T21:31:26.904Z,12.73
2023-02-23T21:34:16.117Z,13.27
2023-02-23T21:37:02.196Z,13.30
2023-02-23T21:39:49.931Z,12.38
2023-02-23T21:42:42.389Z,13.10
2023-02-23T21:45:28.266Z,13.38
2023-02-23T21:48:15.090Z,13.88
2023-02-23T21:51:06.108Z,13.07
2023-02-23T21:53:52.237Z,13.93
2023-02-23T21:56:38.177Z,13.45
2023-02-23T21:59:24.581Z,13.45
2023-02-23T22:02:13.300Z,13.60
2023-02-23T22:05:00.175Z,13.63
2023-02-23T22:07:51.506Z,13.63
2023-02-23T22:10:37.737Z,13.75
2023-02-23T22:13:23.969Z,13.05
2023-02-23T22:16:10.242Z,14.18
2023-02-23T22:18:56.305Z,13.93
2023-02-23T22:21:43.069Z,14.38
2023-02-23T22:24:28.819Z,15.13
2023-02-23T22:27:16.616Z,13.68
2023-02-23T22:30:05.331Z,14.40
2023-02-23T22:32:51.445Z,14.85
2023-02-23T22:35:41.059Z,14.55
2023-02-23T22:38:26.844Z,14.95
2023-02-23T22:41:13.863Z,14.73
2023-02-23T22:43:59.842Z,14.75
2023-02-23T22:46:48.452Z,15.23
2023-02-23T22:49:35.712Z,14.75
2023-02-23T22:52:21.566Z,14.57
2023-02-23T22:55:08.112Z,14.40
2023-02-23T22:57:55.685Z,14.23
2023-02-23T23:01:02.377Z,14.77
2023-02-23T23:03:48.343Z,14.55
2023-02-23T23:06:34.501Z,14.68
2023-02-23T23:09:21.442Z,14.55
2023-02-23T23:12:07.330Z,14.98
2023-02-23T23:14:53.006Z,15.05
2023-02-23T23:17:38.978Z,15.20
2023-02-23T23:20:25.986Z,14.82
2023-02-23T23:23:13.247Z,14.68
2023-02-23T23:26:00.080Z,14.32
2023-02-23T23:28:48.426Z,14.50
2023-02-23T23:31:35.718Z,14.10
2023-02-23T23:34:22.619Z,14.13
2023-02-23T23:37:09.149Z,14.48
2023-02-23T23:40:00.314Z,14.63
2023-02-23T23:42:46.834Z,14.73
2023-02-23T23:45:38.279Z,14.77
2023-02-23T23:48:25.493Z,14.70
2023-02-23T23:51:11.602Z,15.18
2023-02-23T23:54:01.800Z,15.57
2023-02-23T23:56:48.263Z,15.75
2023-02-23T23:59:35.920Z,14.80
